sensor_id;sensor_type;location;lat;lon;timestamp;temperature;humidity
782;DHT22;374;52.568;13.402;2023-01-29T00:01:23;1.30;99.90
782;DHT22;374;52.568;13.402;2023-01-29T00:03:51;1.30;99.90
782;DHT22;374;52.568;13.402;2023-01-29T00:06:17;1.30;99.90
782;DHT22;374;52.568;13.402;2023-01-29T00:08:43;1.40;99.90
782;DHT22;374;52.568;13.402;2023-01-29T00:11:11;1.40;99.90
782;DHT22;374;52.568;13.402;2023-01-29T00:13:45;1.40;99.90
782;DHT22;374;52.568;13.402;2023-01-29T00:16:23;1.70;99.90
782;DHT22;374;52.568;13.402;2023-01-29T00:18:53;1.70;99.90
782;DHT22;374;52.568;13.402;2023-01-29T00:21:24;1.20;99.90
782;DHT22;374;52.568;13.402;2023-01-29T00:24:01;1.10;99.90
782;DHT22;374;52.568;13.402;2023-01-29T00:26:36;1.40;99.90
782;DHT22;374;52.568;13.402;2023-01-29T00:29:07;1.20;99.90
782;DHT22;374;52.568;13.402;2023-01-29T00:31:37;1.40;99.90
782;DHT22;374;52.568;13.402;2023-01-29T00:34:05;1.70;99.90
782;DHT22;374;52.568;13.402;2023-01-29T00:36:32;1.40;99.90
782;DHT22;374;52.568;13.402;2023-01-29T00:38:59;1.40;99.90
782;DHT22;374;52.568;13.402;2023-01-29T00:41:29;1.60;99.90
782;DHT22;374;52.568;13.402;2023-01-29T00:44:13;1.40;99.90
782;DHT22;374;52.568;13.402;2023-01-29T00:47:01;1.40;99.90
782;DHT22;374;52.568;13.402;2023-01-29T00:49:27;1.20;99.90
782;DHT22;374;52.568;13.402;2023-01-29T00:51:54;1.30;99.90
782;DHT22;374;52.568;13.402;2023-01-29T00:54:39;1.40;99.90
782;DHT22;374;52.568;13.402;2023-01-29T00:57:04;1.50;99.90
782;DHT22;374;52.568;13.402;2023-01-29T00:59:30;1.40;99.90
782;DHT22;374;52.568;13.402;2023-01-29T01:01:56;1.40;99.90
782;DHT22;374;52.568;13.402;2023-01-29T01:04:40;1.40;99.90
782;DHT22;374;52.568;13.402;2023-01-29T01:07:06;1.40;99.90
782;DHT22;374;52.568;13.402;2023-01-29T01:09:34;1.40;99.90
782;DHT22;374;52.568;13.402;2023-01-29T01:12:19;1.40;99.90
782;DHT22;374;52.568;13.402;2023-01-29T01:14:45;1.50;99.90
782;DHT22;374;52.568;13.402;2023-01-29T01:17:11;1.40;99.90
782;DHT22;374;52.568;13.402;2023-01-29T01:19:36;1.40;99.90
782;DHT22;374;52.568;13.402;2023-01-29T01:22:01;1.40;99.90
782;DHT22;374;52.568;13.402;2023-01-29T01:24:29;1.40;99.90
782;DHT22;374;52.568;13.402;2023-01-29T01:26:54;1.40;99.90
782;DHT22;374;52.568;13.402;2023-01-29T01:29:20;1.40;99.90
782;DHT22;374;52.568;13.402;2023-01-29T01:31:45;1.40;99.90
782;DHT22;374;52.568;13.402;2023-01-29T01:34:11;1.40;99.90
782;DHT22;374;52.568;13.402;2023-01-29T01:36:36;1.40;99.90
782;DHT22;374;52.568;13.402;2023-01-29T01:39:02;1.40;99.90
782;DHT22;374;52.568;13.402;2023-01-29T01:41:28;1.40;99.90
782;DHT22;374;52.568;13.402;2023-01-29T01:44:02;1.40;99.90
782;DHT22;374;52.568;13.402;2023-01-29T01:46:32;1.40;99.90
782;DHT22;374;52.568;13.402;2023-01-29T01:49:10;1.40;99.90
782;DHT22;374;52.568;13.402;2023-01-29T01:51:41;1.40;99.90
782;DHT22;374;52.568;13.402;2023-01-29T01:54:11;1.40;99.90
782;DHT22;374;52.568;13.402;2023-01-29T01:56:42;1.50;99.90
782;DHT22;374;52.568;13.402;2023-01-29T01:59:11;1.40;99.90
782;DHT22;374;52.568;13.402;2023-01-29T02:01:41;1.50;99.90
782;DHT22;374;52.568;13.402;2023-01-29T02:04:11;1.50;99.90
782;DHT22;374;52.568;13.402;2023-01-29T02:06:58;1.40;99.90
782;DHT22;374;52.568;13.402;2023-01-29T02:09:55;1.50;99.90
782;DHT22;374;52.568;13.402;2023-01-29T02:12:24;1.50;99.90
782;DHT22;374;52.568;13.402;2023-01-29T02:14:51;1.50;99.90
782;DHT22;374;52.568;13.402;2023-01-29T02:17:18;1.40;99.90
782;DHT22;374;52.568;13.402;2023-01-29T02:20:17;1.50;99.90
782;DHT22;374;52.568;13.402;2023-01-29T02:28:38;1.50;99.90
782;DHT22;374;52.568;13.402;2023-01-29T02:33:53;1.50;99.90
782;DHT22;374;52.568;13.402;2023-01-29T02:36:39;1.50;99.90
782;DHT22;374;52.568;13.402;2023-01-29T02:42:27;1.50;99.90
782;DHT22;374;52.568;13.402;2023-01-29T02:44:55;1.50;99.90
782;DHT22;374;52.568;13.402;2023-01-29T02:47:33;1.50;99.90
782;DHT22;374;52.568;13.402;2023-01-29T02:50:20;1.50;99.90
782;DHT22;374;52.568;13.402;2023-01-29T02:53:00;1.50;99.90
782;DHT22;374;52.568;13.402;2023-01-29T02:58:14;1.50;99.90
782;DHT22;374;52.568;13.402;2023-01-29T03:00:44;1.50;99.90
782;DHT22;374;52.568;13.402;2023-01-29T03:03:20;1.50;99.90
782;DHT22;374;52.568;13.402;2023-01-29T03:06:06;1.50;99.90
782;DHT22;374;52.568;13.402;2023-01-29T03:08:38;1.60;99.90
782;DHT22;374;52.568;13.402;2023-01-29T03:11:09;1.50;99.90
782;DHT22;374;52.568;13.402;2023-01-29T03:19:07;1.60;99.90
782;DHT22;374;52.568;13.402;2023-01-29T03:21:40;1.60;99.90
782;DHT22;374;52.568;13.402;2023-01-29T03:24:28;1.60;99.90
782;DHT22;374;52.568;13.402;2023-01-29T03:27:14;1.60;99.90
782;DHT22;374;52.568;13.402;2023-01-29T03:30:00;1.60;99.90
782;DHT22;374;52.568;13.402;2023-01-29T03:32:46;1.60;99.90
782;DHT22;374;52.568;13.402;2023-01-29T03:35:17;1.60;99.90
782;DHT22;374;52.568;13.402;2023-01-29T03:37:47;1.60;99.90
782;DHT22;374;52.568;13.402;2023-01-29T03:40:13;1.60;99.90
782;DHT22;374;52.568;13.402;2023-01-29T03:42:58;1.60;99.90
782;DHT22;374;52.568;13.402;2023-01-29T03:48:44;1.60;99.90
782;DHT22;374;52.568;13.402;2023-01-29T03:51:35;1.60;99.90
782;DHT22;374;52.568;13.402;2023-01-29T03:54:13;1.60;99.90
782;DHT22;374;52.568;13.402;2023-01-29T03:56:54;1.70;99.90
782;DHT22;374;52.568;13.402;2023-01-29T04:02:11;1.70;99.90
782;DHT22;374;52.568;13.402;2023-01-29T04:04:40;1.70;99.90
782;DHT22;374;52.568;13.402;2023-01-29T04:07:11;1.70;99.90
782;DHT22;374;52.568;13.402;2023-01-29T04:09:42;1.70;99.90
782;DHT22;374;52.568;13.402;2023-01-29T04:12:10;1.70;99.90
782;DHT22;374;52.568;13.402;2023-01-29T04:14:38;1.70;99.90
782;DHT22;374;52.568;13.402;2023-01-29T04:17:12;1.70;99.90
782;DHT22;374;52.568;13.402;2023-01-29T04:19:39;1.70;99.90
782;DHT22;374;52.568;13.402;2023-01-29T04:22:08;1.70;99.90
782;DHT22;374;52.568;13.402;2023-01-29T04:24:37;1.70;99.90
782;DHT22;374;52.568;13.402;2023-01-29T04:29:47;1.70;99.90
782;DHT22;374;52.568;13.402;2023-01-29T04:32:55;1.70;99.90
782;DHT22;374;52.568;13.402;2023-01-29T04:43:26;1.70;99.90
782;DHT22;374;52.568;13.402;2023-01-29T04:46:39;1.70;99.90
782;DHT22;374;52.568;13.402;2023-01-29T04:48:59;1.70;99.90
782;DHT22;374;52.568;13.402;2023-01-29T04:51:31;1.70;99.90
782;DHT22;374;52.568;13.402;2023-01-29T04:57:16;1.70;99.90
782;DHT22;374;52.568;13.402;2023-01-29T04:59:32;1.70;99.90
782;DHT22;374;52.568;13.402;2023-01-29T05:02:00;1.70;99.90
782;DHT22;374;52.568;13.402;2023-01-29T05:04:31;1.70;99.90
782;DHT22;374;52.568;13.402;2023-01-29T05:07:01;1.70;99.90
782;DHT22;374;52.568;13.402;2023-01-29T05:09:28;1.70;99.90
782;DHT22;374;52.568;13.402;2023-01-29T05:11:55;1.70;99.90
782;DHT22;374;52.568;13.402;2023-01-29T05:14:21;1.70;99.90
782;DHT22;374;52.568;13.402;2023-01-29T05:16:51;1.70;99.90
782;DHT22;374;52.568;13.402;2023-01-29T05:19:17;1.70;99.90
782;DHT22;374;52.568;13.402;2023-01-29T05:21:45;1.70;99.90
782;DHT22;374;52.568;13.402;2023-01-29T05:24:12;1.70;99.90
782;DHT22;374;52.568;13.402;2023-01-29T05:26:38;1.70;99.90
782;DHT22;374;52.568;13.402;2023-01-29T05:29:22;1.70;99.90
782;DHT22;374;52.568;13.402;2023-01-29T05:31:48;1.70;99.90
782;DHT22;374;52.568;13.402;2023-01-29T05:34:16;1.70;99.90
782;DHT22;374;52.568;13.402;2023-01-29T05:36:42;1.70;99.90
782;DHT22;374;52.568;13.402;2023-01-29T05:39:07;1.70;99.90
782;DHT22;374;52.568;13.402;2023-01-29T05:41:33;1.70;99.90
782;DHT22;374;52.568;13.402;2023-01-29T05:43:58;1.70;99.90
782;DHT22;374;52.568;13.402;2023-01-29T05:46:24;1.70;99.90
782;DHT22;374;52.568;13.402;2023-01-29T05:48:51;1.70;99.90
782;DHT22;374;52.568;13.402;2023-01-29T05:51:17;1.70;99.90
782;DHT22;374;52.568;13.402;2023-01-29T05:53:42;1.70;99.90
782;DHT22;374;52.568;13.402;2023-01-29T05:56:08;1.70;99.90
782;DHT22;374;52.568;13.402;2023-01-29T05:58:34;1.70;99.90
782;DHT22;374;52.568;13.402;2023-01-29T06:03:38;1.70;99.90
782;DHT22;374;52.568;13.402;2023-01-29T06:06:04;1.70;99.90
782;DHT22;374;52.568;13.402;2023-01-29T06:08:29;1.70;99.90
782;DHT22;374;52.568;13.402;2023-01-29T06:10:55;1.70;99.90
782;DHT22;374;52.568;13.402;2023-01-29T06:13:20;1.80;99.90
782;DHT22;374;52.568;13.402;2023-01-29T06:15:46;1.70;99.90
782;DHT22;374;52.568;13.402;2023-01-29T06:18:11;1.70;99.90
782;DHT22;374;52.568;13.402;2023-01-29T06:20:37;1.70;99.90
782;DHT22;374;52.568;13.402;2023-01-29T06:23:03;1.70;99.90
782;DHT22;374;52.568;13.402;2023-01-29T06:25:29;1.80;99.90
782;DHT22;374;52.568;13.402;2023-01-29T06:27:54;1.70;99.90
782;DHT22;374;52.568;13.402;2023-01-29T06:30:19;1.70;99.90
782;DHT22;374;52.568;13.402;2023-01-29T06:32:45;1.70;99.90
782;DHT22;374;52.568;13.402;2023-01-29T06:35:10;1.70;99.90
782;DHT22;374;52.568;13.402;2023-01-29T06:37:36;1.80;99.90
782;DHT22;374;52.568;13.402;2023-01-29T06:40:02;1.80;99.90
782;DHT22;374;52.568;13.402;2023-01-29T06:42:28;1.80;99.90
782;DHT22;374;52.568;13.402;2023-01-29T06:44:56;1.70;99.90
782;DHT22;374;52.568;13.402;2023-01-29T06:47:23;1.80;99.90
782;DHT22;374;52.568;13.402;2023-01-29T06:49:49;1.80;99.90
782;DHT22;374;52.568;13.402;2023-01-29T06:52:14;1.70;99.90
782;DHT22;374;52.568;13.402;2023-01-29T06:54:40;1.80;99.90
782;DHT22;374;52.568;13.402;2023-01-29T06:57:05;1.80;99.90
782;DHT22;374;52.568;13.402;2023-01-29T06:59:31;1.70;99.90
782;DHT22;374;52.568;13.402;2023-01-29T07:01:56;1.80;99.90
782;DHT22;374;52.568;13.402;2023-01-29T07:04:21;1.80;99.90
782;DHT22;374;52.568;13.402;2023-01-29T07:06:47;1.80;99.90
782;DHT22;374;52.568;13.402;2023-01-29T07:09:12;1.80;99.90
782;DHT22;374;52.568;13.402;2023-01-29T07:11:38;1.80;99.90
782;DHT22;374;52.568;13.402;2023-01-29T07:14:04;1.80;99.90
782;DHT22;374;52.568;13.402;2023-01-29T07:16:30;1.80;99.90
782;DHT22;374;52.568;13.402;2023-01-29T07:18:56;1.80;99.90
782;DHT22;374;52.568;13.402;2023-01-29T07:21:21;1.80;99.90
782;DHT22;374;52.568;13.402;2023-01-29T07:23:47;1.80;99.90
782;DHT22;374;52.568;13.402;2023-01-29T07:26:12;1.80;99.90
782;DHT22;374;52.568;13.402;2023-01-29T07:28:38;1.80;99.90
782;DHT22;374;52.568;13.402;2023-01-29T07:31:05;1.80;99.90
782;DHT22;374;52.568;13.402;2023-01-29T07:33:31;1.80;99.90
782;DHT22;374;52.568;13.402;2023-01-29T07:35:56;1.80;99.90
782;DHT22;374;52.568;13.402;2023-01-29T07:38:22;1.80;99.90
782;DHT22;374;52.568;13.402;2023-01-29T07:40:47;1.80;99.90
782;DHT22;374;52.568;13.402;2023-01-29T07:43:13;1.80;99.90
782;DHT22;374;52.568;13.402;2023-01-29T07:45:39;1.80;99.90
782;DHT22;374;52.568;13.402;2023-01-29T07:48:06;1.90;99.90
782;DHT22;374;52.568;13.402;2023-01-29T07:50:33;1.90;99.90
782;DHT22;374;52.568;13.402;2023-01-29T07:52:59;1.90;99.90
782;DHT22;374;52.568;13.402;2023-01-29T07:55:25;1.90;99.90
782;DHT22;374;52.568;13.402;2023-01-29T07:57:55;1.90;99.90
782;DHT22;374;52.568;13.402;2023-01-29T08:00:20;1.90;99.90
782;DHT22;374;52.568;13.402;2023-01-29T08:02:46;1.90;99.90
782;DHT22;374;52.568;13.402;2023-01-29T08:05:11;1.90;99.90
782;DHT22;374;52.568;13.402;2023-01-29T08:07:37;1.90;99.90
782;DHT22;374;52.568;13.402;2023-01-29T08:10:03;1.90;99.90
782;DHT22;374;52.568;13.402;2023-01-29T08:12:28;1.90;99.90
782;DHT22;374;52.568;13.402;2023-01-29T08:14:54;2.00;99.90
782;DHT22;374;52.568;13.402;2023-01-29T08:17:19;1.90;99.90
782;DHT22;374;52.568;13.402;2023-01-29T08:19:45;2.00;99.90
782;DHT22;374;52.568;13.402;2023-01-29T08:22:10;2.00;99.90
782;DHT22;374;52.568;13.402;2023-01-29T08:24:36;2.00;99.90
782;DHT22;374;52.568;13.402;2023-01-29T08:27:02;2.00;99.90
782;DHT22;374;52.568;13.402;2023-01-29T08:29:27;2.00;99.90
782;DHT22;374;52.568;13.402;2023-01-29T08:31:53;2.00;99.90
782;DHT22;374;52.568;13.402;2023-01-29T08:34:18;2.00;99.90
782;DHT22;374;52.568;13.402;2023-01-29T08:36:44;2.10;99.90
782;DHT22;374;52.568;13.402;2023-01-29T08:39:10;2.10;99.90
782;DHT22;374;52.568;13.402;2023-01-29T08:41:35;2.10;99.90
782;DHT22;374;52.568;13.402;2023-01-29T08:44:01;2.10;99.90
782;DHT22;374;52.568;13.402;2023-01-29T08:46:28;2.10;99.90
782;DHT22;374;52.568;13.402;2023-01-29T08:48:54;2.10;99.90
782;DHT22;374;52.568;13.402;2023-01-29T08:51:20;2.10;99.90
782;DHT22;374;52.568;13.402;2023-01-29T08:53:46;2.10;99.90
782;DHT22;374;52.568;13.402;2023-01-29T08:56:11;2.10;99.90
782;DHT22;374;52.568;13.402;2023-01-29T08:58:37;2.10;99.90
782;DHT22;374;52.568;13.402;2023-01-29T09:01:07;2.10;99.90
782;DHT22;374;52.568;13.402;2023-01-29T09:03:34;2.20;99.90
782;DHT22;374;52.568;13.402;2023-01-29T09:05:59;2.20;99.90
782;DHT22;374;52.568;13.402;2023-01-29T09:08:25;2.20;99.90
782;DHT22;374;52.568;13.402;2023-01-29T09:10:50;2.20;99.90
782;DHT22;374;52.568;13.402;2023-01-29T09:13:16;2.20;99.90
782;DHT22;374;52.568;13.402;2023-01-29T09:15:41;2.20;99.90
782;DHT22;374;52.568;13.402;2023-01-29T09:18:07;2.30;99.90
782;DHT22;374;52.568;13.402;2023-01-29T09:20:32;2.30;99.90
782;DHT22;374;52.568;13.402;2023-01-29T09:23:04;2.30;99.90
782;DHT22;374;52.568;13.402;2023-01-29T09:25:30;2.30;99.90
782;DHT22;374;52.568;13.402;2023-01-29T09:27:55;2.30;99.90
782;DHT22;374;52.568;13.402;2023-01-29T09:30:21;2.40;99.90
782;DHT22;374;52.568;13.402;2023-01-29T09:32:46;2.30;99.90
782;DHT22;374;52.568;13.402;2023-01-29T09:35:12;2.30;99.90
782;DHT22;374;52.568;13.402;2023-01-29T09:37:37;2.30;99.90
782;DHT22;374;52.568;13.402;2023-01-29T09:40:03;2.30;99.90
782;DHT22;374;52.568;13.402;2023-01-29T09:42:43;2.40;99.90
782;DHT22;374;52.568;13.402;2023-01-29T09:45:26;2.40;99.90
782;DHT22;374;52.568;13.402;2023-01-29T09:47:56;2.40;99.90
782;DHT22;374;52.568;13.402;2023-01-29T09:50:28;2.40;99.90
782;DHT22;374;52.568;13.402;2023-01-29T09:53:12;2.50;99.90
782;DHT22;374;52.568;13.402;2023-01-29T09:55:44;2.50;99.90
782;DHT22;374;52.568;13.402;2023-01-29T09:58:25;2.50;99.90
782;DHT22;374;52.568;13.402;2023-01-29T10:01:18;2.50;99.90
782;DHT22;374;52.568;13.402;2023-01-29T10:04:20;2.60;99.90
782;DHT22;374;52.568;13.402;2023-01-29T10:10:22;2.60;99.90
782;DHT22;374;52.568;13.402;2023-01-29T10:15:48;2.60;99.90
782;DHT22;374;52.568;13.402;2023-01-29T10:26:41;2.70;99.90
782;DHT22;374;52.568;13.402;2023-01-29T10:29:07;2.70;99.90
782;DHT22;374;52.568;13.402;2023-01-29T10:31:37;2.80;99.90
782;DHT22;374;52.568;13.402;2023-01-29T10:34:22;2.80;99.90
782;DHT22;374;52.568;13.402;2023-01-29T10:36:49;2.80;99.90
782;DHT22;374;52.568;13.402;2023-01-29T10:39:19;2.90;99.90
782;DHT22;374;52.568;13.402;2023-01-29T10:45:17;2.90;99.90
782;DHT22;374;52.568;13.402;2023-01-29T10:50:41;3.00;99.90
782;DHT22;374;52.568;13.402;2023-01-29T10:58:55;3.20;99.90
782;DHT22;374;52.568;13.402;2023-01-29T11:01:23;3.30;99.90
782;DHT22;374;52.568;13.402;2023-01-29T11:04:00;3.30;99.90
782;DHT22;374;52.568;13.402;2023-01-29T11:06:33;3.30;99.90
782;DHT22;374;52.568;13.402;2023-01-29T11:09:17;3.30;99.90
782;DHT22;374;52.568;13.402;2023-01-29T11:11:53;3.30;99.90
782;DHT22;374;52.568;13.402;2023-01-29T11:14:23;3.30;99.90
782;DHT22;374;52.568;13.402;2023-01-29T11:16:51;3.40;99.90
782;DHT22;374;52.568;13.402;2023-01-29T11:19:16;3.40;99.90
782;DHT22;374;52.568;13.402;2023-01-29T11:22:00;3.40;99.90
782;DHT22;374;52.568;13.402;2023-01-29T11:24:26;3.40;99.90
782;DHT22;374;52.568;13.402;2023-01-29T11:26:54;3.50;99.90
782;DHT22;374;52.568;13.402;2023-01-29T11:29:42;3.50;99.90
782;DHT22;374;52.568;13.402;2023-01-29T11:32:14;3.50;99.90
782;DHT22;374;52.568;13.402;2023-01-29T11:35:19;3.50;99.90
782;DHT22;374;52.568;13.402;2023-01-29T11:37:46;3.50;99.90
782;DHT22;374;52.568;13.402;2023-01-29T11:42:47;3.50;99.90
782;DHT22;374;52.568;13.402;2023-01-29T11:47:48;3.60;99.90
782;DHT22;374;52.568;13.402;2023-01-29T11:50:23;3.60;99.90
782;DHT22;374;52.568;13.402;2023-01-29T11:52:49;3.60;99.90
782;DHT22;374;52.568;13.402;2023-01-29T11:55:22;3.60;99.90
782;DHT22;374;52.568;13.402;2023-01-29T11:58:18;3.70;99.90
782;DHT22;374;52.568;13.402;2023-01-29T12:00:48;3.70;99.90
782;DHT22;374;52.568;13.402;2023-01-29T12:03:29;3.70;99.90
782;DHT22;374;52.568;13.402;2023-01-29T12:06:01;3.70;99.90
782;DHT22;374;52.568;13.402;2023-01-29T12:08:36;3.70;99.90
782;DHT22;374;52.568;13.402;2023-01-29T12:11:23;3.70;99.90
782;DHT22;374;52.568;13.402;2023-01-29T12:13:53;3.70;99.90
782;DHT22;374;52.568;13.402;2023-01-29T12:19:13;3.80;99.90
782;DHT22;374;52.568;13.402;2023-01-29T12:21:47;3.80;99.90
782;DHT22;374;52.568;13.402;2023-01-29T12:24:30;3.80;99.90
782;DHT22;374;52.568;13.402;2023-01-29T12:27:04;3.80;99.90
782;DHT22;374;52.568;13.402;2023-01-29T12:30:11;3.90;99.90
782;DHT22;374;52.568;13.402;2023-01-29T12:32:51;3.90;99.90
782;DHT22;374;52.568;13.402;2023-01-29T12:35:41;3.90;99.90
782;DHT22;374;52.568;13.402;2023-01-29T12:38:19;3.90;99.90
782;DHT22;374;52.568;13.402;2023-01-29T12:40:50;3.90;99.90
782;DHT22;374;52.568;13.402;2023-01-29T12:43:26;3.90;99.90
782;DHT22;374;52.568;13.402;2023-01-29T12:45:54;3.90;99.90
782;DHT22;374;52.568;13.402;2023-01-29T12:48:41;4.00;99.90
782;DHT22;374;52.568;13.402;2023-01-29T12:51:17;4.00;99.90
782;DHT22;374;52.568;13.402;2023-01-29T12:53:58;4.00;99.90
782;DHT22;374;52.568;13.402;2023-01-29T12:56:37;4.00;99.90
782;DHT22;374;52.568;13.402;2023-01-29T12:59:30;4.00;99.90
782;DHT22;374;52.568;13.402;2023-01-29T13:02:15;4.00;99.90
782;DHT22;374;52.568;13.402;2023-01-29T13:04:47;4.00;99.90
782;DHT22;374;52.568;13.402;2023-01-29T13:07:27;4.00;99.90
782;DHT22;374;52.568;13.402;2023-01-29T13:10:22;3.90;99.90
782;DHT22;374;52.568;13.402;2023-01-29T13:13:32;3.90;99.90
782;DHT22;374;52.568;13.402;2023-01-29T13:15:39;3.90;99.90
782;DHT22;374;52.568;13.402;2023-01-29T13:20:54;3.90;99.90
782;DHT22;374;52.568;13.402;2023-01-29T13:23:24;3.90;99.90
782;DHT22;374;52.568;13.402;2023-01-29T13:25:52;4.00;99.90
782;DHT22;374;52.568;13.402;2023-01-29T13:28:23;3.90;99.90
782;DHT22;374;52.568;13.402;2023-01-29T13:31:09;3.90;99.90
782;DHT22;374;52.568;13.402;2023-01-29T13:33:36;3.90;99.90
782;DHT22;374;52.568;13.402;2023-01-29T13:36:03;4.00;99.90
782;DHT22;374;52.568;13.402;2023-01-29T13:38:32;4.00;99.90
782;DHT22;374;52.568;13.402;2023-01-29T13:41:04;4.00;99.90
782;DHT22;374;52.568;13.402;2023-01-29T13:43:38;4.00;99.90
782;DHT22;374;52.568;13.402;2023-01-29T13:46:08;3.90;99.90
782;DHT22;374;52.568;13.402;2023-01-29T13:48:41;3.90;99.90
782;DHT22;374;52.568;13.402;2023-01-29T13:51:10;3.90;99.90
782;DHT22;374;52.568;13.402;2023-01-29T13:56:41;3.90;99.90
782;DHT22;374;52.568;13.402;2023-01-29T13:59:24;3.90;99.90
782;DHT22;374;52.568;13.402;2023-01-29T14:02:28;3.90;99.90
782;DHT22;374;52.568;13.402;2023-01-29T14:07:53;3.90;99.90
782;DHT22;374;52.568;13.402;2023-01-29T14:10:21;3.90;99.90
782;DHT22;374;52.568;13.402;2023-01-29T14:12:49;3.90;99.90
782;DHT22;374;52.568;13.402;2023-01-29T14:15:17;3.90;99.90
782;DHT22;374;52.568;13.402;2023-01-29T14:18:16;3.90;99.90
782;DHT22;374;52.568;13.402;2023-01-29T14:21:06;3.90;99.90
782;DHT22;374;52.568;13.402;2023-01-29T14:23:51;3.90;99.90
782;DHT22;374;52.568;13.402;2023-01-29T14:26:22;3.90;99.90
782;DHT22;374;52.568;13.402;2023-01-29T14:31:28;3.90;99.90
782;DHT22;374;52.568;13.402;2023-01-29T14:33:59;3.90;99.90
782;DHT22;374;52.568;13.402;2023-01-29T14:36:25;3.80;99.90
782;DHT22;374;52.568;13.402;2023-01-29T14:38:52;3.90;99.90
782;DHT22;374;52.568;13.402;2023-01-29T14:41:29;3.80;99.90
782;DHT22;374;52.568;13.402;2023-01-29T14:47:02;3.80;99.90
782;DHT22;374;52.568;13.402;2023-01-29T14:49:48;3.80;99.90
782;DHT22;374;52.568;13.402;2023-01-29T14:52:15;3.80;99.90
782;DHT22;374;52.568;13.402;2023-01-29T14:54:45;3.80;99.90
782;DHT22;374;52.568;13.402;2023-01-29T14:57:13;3.80;99.90
782;DHT22;374;52.568;13.402;2023-01-29T14:59:56;3.80;99.90
782;DHT22;374;52.568;13.402;2023-01-29T15:02:38;3.80;99.90
782;DHT22;374;52.568;13.402;2023-01-29T15:05:17;3.70;99.90
782;DHT22;374;52.568;13.402;2023-01-29T15:07:50;3.70;99.90
782;DHT22;374;52.568;13.402;2023-01-29T15:10:24;3.70;99.90
782;DHT22;374;52.568;13.402;2023-01-29T15:12:59;3.70;99.90
782;DHT22;374;52.568;13.402;2023-01-29T15:15:36;3.70;99.90
782;DHT22;374;52.568;13.402;2023-01-29T15:18:13;3.70;99.90
782;DHT22;374;52.568;13.402;2023-01-29T15:20:41;3.70;99.90
782;DHT22;374;52.568;13.402;2023-01-29T15:25:55;3.70;99.90
782;DHT22;374;52.568;13.402;2023-01-29T15:28:21;3.70;99.90
782;DHT22;374;52.568;13.402;2023-01-29T15:30:52;3.70;99.90
782;DHT22;374;52.568;13.402;2023-01-29T15:33:19;3.70;99.90
782;DHT22;374;52.568;13.402;2023-01-29T15:35:46;3.70;99.90
782;DHT22;374;52.568;13.402;2023-01-29T15:38:19;3.70;99.90
782;DHT22;374;52.568;13.402;2023-01-29T15:41:19;3.70;99.90
782;DHT22;374;52.568;13.402;2023-01-29T15:43:47;3.70;99.90
782;DHT22;374;52.568;13.402;2023-01-29T15:46:24;3.70;99.90
782;DHT22;374;52.568;13.402;2023-01-29T15:48:52;3.60;99.90
782;DHT22;374;52.568;13.402;2023-01-29T15:51:21;3.60;99.90
782;DHT22;374;52.568;13.402;2023-01-29T15:53:51;3.60;99.90
782;DHT22;374;52.568;13.402;2023-01-29T15:56:20;3.60;99.90
782;DHT22;374;52.568;13.402;2023-01-29T15:58:48;3.60;99.90
782;DHT22;374;52.568;13.402;2023-01-29T16:01:14;3.60;99.90
782;DHT22;374;52.568;13.402;2023-01-29T16:03:40;3.60;99.90
782;DHT22;374;52.568;13.402;2023-01-29T16:06:07;3.60;99.90
782;DHT22;374;52.568;13.402;2023-01-29T16:08:34;3.60;99.90
782;DHT22;374;52.568;13.402;2023-01-29T16:11:03;3.60;99.90
782;DHT22;374;52.568;13.402;2023-01-29T16:13:32;3.60;99.90
782;DHT22;374;52.568;13.402;2023-01-29T16:16:02;3.60;99.90
782;DHT22;374;52.568;13.402;2023-01-29T16:18:30;3.50;99.90
782;DHT22;374;52.568;13.402;2023-01-29T16:20:58;3.60;99.90
782;DHT22;374;52.568;13.402;2023-01-29T16:23:27;3.50;99.90
782;DHT22;374;52.568;13.402;2023-01-29T16:25:55;3.50;99.90
782;DHT22;374;52.568;13.402;2023-01-29T16:28:25;3.50;99.90
782;DHT22;374;52.568;13.402;2023-01-29T16:30:57;3.60;99.90
782;DHT22;374;52.568;13.402;2023-01-29T16:33:30;3.50;99.90
782;DHT22;374;52.568;13.402;2023-01-29T16:35:57;3.50;99.90
782;DHT22;374;52.568;13.402;2023-01-29T16:38:27;3.60;99.90
782;DHT22;374;52.568;13.402;2023-01-29T16:43:51;3.50;99.90
782;DHT22;374;52.568;13.402;2023-01-29T16:46:18;3.50;99.90
782;DHT22;374;52.568;13.402;2023-01-29T16:48:44;3.50;99.90
782;DHT22;374;52.568;13.402;2023-01-29T16:54:01;3.60;99.90
782;DHT22;374;52.568;13.402;2023-01-29T16:56:31;3.50;99.90
782;DHT22;374;52.568;13.402;2023-01-29T16:58:58;3.50;99.90
782;DHT22;374;52.568;13.402;2023-01-29T17:01:25;3.50;99.90
782;DHT22;374;52.568;13.402;2023-01-29T17:04:00;3.60;99.90
782;DHT22;374;52.568;13.402;2023-01-29T17:06:30;3.60;99.90
782;DHT22;374;52.568;13.402;2023-01-29T17:08:56;3.60;99.90
782;DHT22;374;52.568;13.402;2023-01-29T17:11:37;3.60;99.90
782;DHT22;374;52.568;13.402;2023-01-29T17:14:05;3.50;99.90
782;DHT22;374;52.568;13.402;2023-01-29T17:16:33;3.60;99.90
782;DHT22;374;52.568;13.402;2023-01-29T17:19:00;3.50;99.90
782;DHT22;374;52.568;13.402;2023-01-29T17:21:27;3.50;99.90
782;DHT22;374;52.568;13.402;2023-01-29T17:23:52;3.50;99.90
782;DHT22;374;52.568;13.402;2023-01-29T17:26:19;3.50;99.90
782;DHT22;374;52.568;13.402;2023-01-29T17:28:45;3.50;99.90
782;DHT22;374;52.568;13.402;2023-01-29T17:31:13;3.50;99.90
782;DHT22;374;52.568;13.402;2023-01-29T17:33:41;3.50;99.90
782;DHT22;374;52.568;13.402;2023-01-29T17:36:11;3.50;99.90
782;DHT22;374;52.568;13.402;2023-01-29T17:38:40;3.50;99.90
782;DHT22;374;52.568;13.402;2023-01-29T17:41:26;3.50;99.90
782;DHT22;374;52.568;13.402;2023-01-29T17:43:52;3.50;99.90
782;DHT22;374;52.568;13.402;2023-01-29T17:46:18;3.50;99.90
782;DHT22;374;52.568;13.402;2023-01-29T17:48:45;3.50;99.90
782;DHT22;374;52.568;13.402;2023-01-29T17:51:12;3.50;99.90
782;DHT22;374;52.568;13.402;2023-01-29T17:53:39;3.50;99.90
782;DHT22;374;52.568;13.402;2023-01-29T17:56:05;3.50;99.90
782;DHT22;374;52.568;13.402;2023-01-29T17:58:30;3.50;99.90
782;DHT22;374;52.568;13.402;2023-01-29T18:00:56;3.50;99.90
782;DHT22;374;52.568;13.402;2023-01-29T18:03:21;3.50;99.90
782;DHT22;374;52.568;13.402;2023-01-29T18:05:48;3.50;99.90
782;DHT22;374;52.568;13.402;2023-01-29T18:08:27;3.50;99.90
782;DHT22;374;52.568;13.402;2023-01-29T18:10:52;3.50;99.90
782;DHT22;374;52.568;13.402;2023-01-29T18:13:18;3.50;99.90
782;DHT22;374;52.568;13.402;2023-01-29T18:15:43;3.50;99.90
782;DHT22;374;52.568;13.402;2023-01-29T18:18:14;3.50;99.90
782;DHT22;374;52.568;13.402;2023-01-29T18:20:42;3.50;99.90
782;DHT22;374;52.568;13.402;2023-01-29T18:23:09;3.50;99.90
782;DHT22;374;52.568;13.402;2023-01-29T18:25:35;3.50;99.90
782;DHT22;374;52.568;13.402;2023-01-29T18:28:01;3.50;99.90
782;DHT22;374;52.568;13.402;2023-01-29T18:30:27;3.50;99.90
782;DHT22;374;52.568;13.402;2023-01-29T18:32:52;3.50;99.90
782;DHT22;374;52.568;13.402;2023-01-29T18:35:19;3.50;99.90
782;DHT22;374;52.568;13.402;2023-01-29T18:37:44;3.50;99.90
782;DHT22;374;52.568;13.402;2023-01-29T18:40:11;3.50;99.90